sensor_id;sensor_type;location;lat;lon;timestamp;P1;durP1;ratioP1;P2;durP2;ratioP2
37451;SDS011;23314;51.114;6.900;2024-01-25T00:01:12;46.00;;;10.10;;
37451;SDS011;23314;51.114;6.900;2024-01-25T00:03:38;51.77;;;9.80;;
37451;SDS011;23314;51.114;6.900;2024-01-25T00:06:06;53.53;;;8.90;;
37451;SDS011;23314;51.114;6.900;2024-01-25T00:08:33;57.27;;;11.00;;
37451;SDS011;23314;51.114;6.900;2024-01-25T00:10:59;45.83;;;8.40;;
37451;SDS011;23314;51.114;6.900;2024-01-25T00:13:25;50.03;;;10.00;;
37451;SDS011;23314;51.114;6.900;2024-01-25T00:15:50;45.80;;;8.70;;
37451;SDS011;23314;51.114;6.900;2024-01-25T00:18:16;50.77;;;9.33;;
37451;SDS011;23314;51.114;6.900;2024-01-25T00:20:41;60.00;;;9.93;;
37451;SDS011;23314;51.114;6.900;2024-01-25T00:23:07;62.97;;;9.23;;
37451;SDS011;23314;51.114;6.900;2024-01-25T00:25:32;46.00;;;9.17;;
37451;SDS011;23314;51.114;6.900;2024-01-25T00:27:57;53.27;;;10.20;;
37451;SDS011;23314;51.114;6.900;2024-01-25T00:30:23;50.37;;;10.80;;
37451;SDS011;23314;51.114;6.900;2024-01-25T00:32:48;56.40;;;10.80;;
37451;SDS011;23314;51.114;6.900;2024-01-25T00:35:14;50.57;;;9.30;;
37451;SDS011;23314;51.114;6.900;2024-01-25T00:37:40;52.20;;;9.93;;
37451;SDS011;23314;51.114;6.900;2024-01-25T00:40:07;53.10;;;9.70;;
37451;SDS011;23314;51.114;6.900;2024-01-25T00:42:38;51.30;;;9.90;;
37451;SDS011;23314;51.114;6.900;2024-01-25T00:45:07;47.47;;;9.30;;
37451;SDS011;23314;51.114;6.900;2024-01-25T00:47:33;58.67;;;10.47;;
37451;SDS011;23314;51.114;6.900;2024-01-25T00:49:58;48.63;;;10.03;;
37451;SDS011;23314;51.114;6.900;2024-01-25T00:52:24;47.23;;;11.03;;
37451;SDS011;23314;51.114;6.900;2024-01-25T00:54:50;51.37;;;10.10;;
37451;SDS011;23314;51.114;6.900;2024-01-25T00:57:15;49.23;;;8.97;;
37451;SDS011;23314;51.114;6.900;2024-01-25T00:59:41;42.90;;;8.67;;
37451;SDS011;23314;51.114;6.900;2024-01-25T01:02:07;53.03;;;10.53;;
37451;SDS011;23314;51.114;6.900;2024-01-25T01:04:37;58.03;;;10.60;;
37451;SDS011;23314;51.114;6.900;2024-01-25T01:07:03;46.47;;;9.60;;
37451;SDS011;23314;51.114;6.900;2024-01-25T01:09:28;62.77;;;10.30;;
37451;SDS011;23314;51.114;6.900;2024-01-25T01:11:54;49.37;;;9.73;;
37451;SDS011;23314;51.114;6.900;2024-01-25T01:14:19;46.43;;;9.73;;
37451;SDS011;23314;51.114;6.900;2024-01-25T01:16:45;43.13;;;9.73;;
37451;SDS011;23314;51.114;6.900;2024-01-25T01:19:10;49.30;;;10.07;;
37451;SDS011;23314;51.114;6.900;2024-01-25T01:21:36;46.73;;;8.87;;
37451;SDS011;23314;51.114;6.900;2024-01-25T01:24:01;52.60;;;10.47;;
37451;SDS011;23314;51.114;6.900;2024-01-25T01:26:27;58.70;;;10.30;;
37451;SDS011;23314;51.114;6.900;2024-01-25T01:28:52;56.90;;;9.93;;
37451;SDS011;23314;51.114;6.900;2024-01-25T01:31:17;59.23;;;10.33;;
37451;SDS011;23314;51.114;6.900;2024-01-25T01:33:43;52.77;;;9.53;;
37451;SDS011;23314;51.114;6.900;2024-01-25T01:36:08;44.33;;;9.33;;
37451;SDS011;23314;51.114;6.900;2024-01-25T01:38:33;52.97;;;10.27;;
37451;SDS011;23314;51.114;6.900;2024-01-25T01:40:58;59.53;;;9.43;;
37451;SDS011;23314;51.114;6.900;2024-01-25T01:43:24;58.50;;;10.60;;
37451;SDS011;23314;51.114;6.900;2024-01-25T01:45:49;50.23;;;10.37;;
37451;SDS011;23314;51.114;6.900;2024-01-25T01:48:15;50.83;;;11.33;;
37451;SDS011;23314;51.114;6.900;2024-01-25T01:50:42;56.67;;;10.93;;
37451;SDS011;23314;51.114;6.900;2024-01-25T01:53:08;57.10;;;10.07;;
37451;SDS011;23314;51.114;6.900;2024-01-25T01:55:34;53.90;;;10.83;;
37451;SDS011;23314;51.114;6.900;2024-01-25T01:57:59;53.57;;;9.03;;
37451;SDS011;23314;51.114;6.900;2024-01-25T02:00:26;49.60;;;10.10;;
37451;SDS011;23314;51.114;6.900;2024-01-25T02:02:51;59.53;;;10.13;;
37451;SDS011;23314;51.114;6.900;2024-01-25T02:05:17;55.90;;;10.30;;
37451;SDS011;23314;51.114;6.900;2024-01-25T02:07:42;48.47;;;9.10;;
37451;SDS011;23314;51.114;6.900;2024-01-25T02:10:08;62.03;;;11.67;;
37451;SDS011;23314;51.114;6.900;2024-01-25T02:12:34;53.73;;;9.77;;
37451;SDS011;23314;51.114;6.900;2024-01-25T02:15:00;48.70;;;9.47;;
37451;SDS011;23314;51.114;6.900;2024-01-25T02:17:25;50.30;;;9.47;;
37451;SDS011;23314;51.114;6.900;2024-01-25T02:19:50;55.73;;;9.73;;
37451;SDS011;23314;51.114;6.900;2024-01-25T02:22:19;61.37;;;11.20;;
37451;SDS011;23314;51.114;6.900;2024-01-25T02:24:45;57.00;;;10.67;;
37451;SDS011;23314;51.114;6.900;2024-01-25T02:27:10;60.87;;;10.50;;
37451;SDS011;23314;51.114;6.900;2024-01-25T02:29:35;49.97;;;9.50;;
37451;SDS011;23314;51.114;6.900;2024-01-25T02:32:01;60.53;;;10.47;;
37451;SDS011;23314;51.114;6.900;2024-01-25T02:34:26;60.10;;;10.57;;
37451;SDS011;23314;51.114;6.900;2024-01-25T02:36:51;65.83;;;10.33;;
37451;SDS011;23314;51.114;6.900;2024-01-25T02:39:17;57.27;;;9.27;;
37451;SDS011;23314;51.114;6.900;2024-01-25T02:41:43;53.97;;;10.03;;
37451;SDS011;23314;51.114;6.900;2024-01-25T02:44:08;51.77;;;9.40;;
37451;SDS011;23314;51.114;6.900;2024-01-25T02:46:33;56.77;;;10.20;;
37451;SDS011;23314;51.114;6.900;2024-01-25T02:48:59;52.83;;;9.43;;
37451;SDS011;23314;51.114;6.900;2024-01-25T02:51:24;60.23;;;10.30;;
37451;SDS011;23314;51.114;6.900;2024-01-25T02:53:49;49.10;;;9.20;;
37451;SDS011;23314;51.114;6.900;2024-01-25T02:56:15;58.73;;;10.43;;
37451;SDS011;23314;51.114;6.900;2024-01-25T02:58:40;48.17;;;8.93;;
37451;SDS011;23314;51.114;6.900;2024-01-25T03:01:06;53.10;;;10.00;;
37451;SDS011;23314;51.114;6.900;2024-01-25T03:03:31;60.53;;;11.10;;
37451;SDS011;23314;51.114;6.900;2024-01-25T03:05:56;56.13;;;11.40;;
37451;SDS011;23314;51.114;6.900;2024-01-25T03:08:22;53.43;;;9.60;;
37451;SDS011;23314;51.114;6.900;2024-01-25T03:10:47;54.23;;;10.50;;
37451;SDS011;23314;51.114;6.900;2024-01-25T03:13:15;49.50;;;10.23;;
37451;SDS011;23314;51.114;6.900;2024-01-25T03:15:44;55.90;;;9.37;;
37451;SDS011;23314;51.114;6.900;2024-01-25T03:18:10;60.03;;;10.23;;
37451;SDS011;23314;51.114;6.900;2024-01-25T03:20:35;54.97;;;10.40;;
37451;SDS011;23314;51.114;6.900;2024-01-25T03:23:01;58.70;;;10.43;;
37451;SDS011;23314;51.114;6.900;2024-01-25T03:25:26;62.63;;;11.17;;
37451;SDS011;23314;51.114;6.900;2024-01-25T03:27:51;62.57;;;9.80;;
37451;SDS011;23314;51.114;6.900;2024-01-25T03:30:17;66.03;;;11.20;;
37451;SDS011;23314;51.114;6.900;2024-01-25T03:32:42;58.53;;;10.30;;
37451;SDS011;23314;51.114;6.900;2024-01-25T03:35:08;53.67;;;10.10;;
37451;SDS011;23314;51.114;6.900;2024-01-25T03:37:33;56.43;;;10.27;;
37451;SDS011;23314;51.114;6.900;2024-01-25T03:39:59;59.73;;;9.77;;
37451;SDS011;23314;51.114;6.900;2024-01-25T03:42:24;68.10;;;11.00;;
37451;SDS011;23314;51.114;6.900;2024-01-25T03:44:51;55.77;;;10.60;;
37451;SDS011;23314;51.114;6.900;2024-01-25T03:47:17;56.77;;;10.93;;
37451;SDS011;23314;51.114;6.900;2024-01-25T03:49:42;54.10;;;10.57;;
37451;SDS011;23314;51.114;6.900;2024-01-25T03:52:08;71.33;;;10.83;;
37451;SDS011;23314;51.114;6.900;2024-01-25T03:54:33;61.10;;;10.83;;
37451;SDS011;23314;51.114;6.900;2024-01-25T03:56:58;65.60;;;11.60;;
37451;SDS011;23314;51.114;6.900;2024-01-25T03:59:24;57.50;;;10.43;;
37451;SDS011;23314;51.114;6.900;2024-01-25T04:01:49;67.27;;;10.80;;
37451;SDS011;23314;51.114;6.900;2024-01-25T04:04:14;69.73;;;10.20;;
37451;SDS011;23314;51.114;6.900;2024-01-25T04:06:41;57.63;;;10.07;;
37451;SDS011;23314;51.114;6.900;2024-01-25T04:09:07;53.80;;;9.57;;
37451;SDS011;23314;51.114;6.900;2024-01-25T04:11:32;66.23;;;10.97;;
37451;SDS011;23314;51.114;6.900;2024-01-25T04:13:58;60.97;;;11.53;;
37451;SDS011;23314;51.114;6.900;2024-01-25T04:16:23;71.67;;;10.83;;
37451;SDS011;23314;51.114;6.900;2024-01-25T04:18:48;70.37;;;11.50;;
37451;SDS011;23314;51.114;6.900;2024-01-25T04:21:14;69.50;;;11.40;;
37451;SDS011;23314;51.114;6.900;2024-01-25T04:23:41;63.00;;;11.47;;
37451;SDS011;23314;51.114;6.900;2024-01-25T04:26:06;67.60;;;10.97;;
37451;SDS011;23314;51.114;6.900;2024-01-25T04:28:31;63.80;;;11.40;;
37451;SDS011;23314;51.114;6.900;2024-01-25T04:30:57;73.40;;;11.03;;
37451;SDS011;23314;51.114;6.900;2024-01-25T04:33:22;66.07;;;11.10;;
37451;SDS011;23314;51.114;6.900;2024-01-25T04:35:47;78.47;;;10.77;;
37451;SDS011;23314;51.114;6.900;2024-01-25T04:38:13;74.60;;;11.30;;
37451;SDS011;23314;51.114;6.900;2024-01-25T04:40:38;89.00;;;11.73;;
37451;SDS011;23314;51.114;6.900;2024-01-25T04:43:03;77.80;;;12.83;;
37451;SDS011;23314;51.114;6.900;2024-01-25T04:45:29;77.97;;;13.10;;
37451;SDS011;23314;51.114;6.900;2024-01-25T04:47:54;73.30;;;11.67;;
37451;SDS011;23314;51.114;6.900;2024-01-25T04:50:19;70.37;;;12.10;;
37451;SDS011;23314;51.114;6.900;2024-01-25T04:52:45;68.10;;;11.53;;
37451;SDS011;23314;51.114;6.900;2024-01-25T04:55:10;72.77;;;11.73;;
37451;SDS011;23314;51.114;6.900;2024-01-25T04:57:35;75.70;;;12.60;;
37451;SDS011;23314;51.114;6.900;2024-01-25T05:00:00;75.57;;;11.90;;
37451;SDS011;23314;51.114;6.900;2024-01-25T05:02:26;78.17;;;12.47;;
37451;SDS011;23314;51.114;6.900;2024-01-25T05:04:51;85.13;;;11.53;;
37451;SDS011;23314;51.114;6.900;2024-01-25T05:07:17;90.57;;;13.93;;
37451;SDS011;23314;51.114;6.900;2024-01-25T05:09:42;81.77;;;13.30;;
37451;SDS011;23314;51.114;6.900;2024-01-25T05:12:07;84.60;;;12.43;;
37451;SDS011;23314;51.114;6.900;2024-01-25T05:14:33;81.60;;;12.17;;
37451;SDS011;23314;51.114;6.900;2024-01-25T05:16:58;81.90;;;13.07;;
37451;SDS011;23314;51.114;6.900;2024-01-25T05:19:23;80.03;;;13.00;;
37451;SDS011;23314;51.114;6.900;2024-01-25T05:21:50;86.87;;;12.67;;
37451;SDS011;23314;51.114;6.900;2024-01-25T05:24:15;71.03;;;11.27;;
37451;SDS011;23314;51.114;6.900;2024-01-25T05:26:41;86.17;;;12.27;;
37451;SDS011;23314;51.114;6.900;2024-01-25T05:29:07;84.67;;;12.50;;
37451;SDS011;23314;51.114;6.900;2024-01-25T05:31:32;71.87;;;13.13;;
37451;SDS011;23314;51.114;6.900;2024-01-25T05:33:57;89.93;;;12.67;;
37451;SDS011;23314;51.114;6.900;2024-01-25T05:36:23;82.97;;;13.63;;
37451;SDS011;23314;51.114;6.900;2024-01-25T05:38:48;83.57;;;11.87;;
37451;SDS011;23314;51.114;6.900;2024-01-25T05:41:13;82.60;;;14.00;;
37451;SDS011;23314;51.114;6.900;2024-01-25T05:43:39;78.27;;;13.47;;
37451;SDS011;23314;51.114;6.900;2024-01-25T05:46:05;97.97;;;13.73;;
37451;SDS011;23314;51.114;6.900;2024-01-25T05:48:30;78.07;;;13.97;;
37451;SDS011;23314;51.114;6.900;2024-01-25T05:50:56;75.00;;;12.60;;
37451;SDS011;23314;51.114;6.900;2024-01-25T05:53:21;98.30;;;13.90;;
37451;SDS011;23314;51.114;6.900;2024-01-25T05:55:47;82.43;;;14.13;;
37451;SDS011;23314;51.114;6.900;2024-01-25T05:58:13;95.03;;;14.20;;
37451;SDS011;23314;51.114;6.900;2024-01-25T06:00:38;84.37;;;14.13;;
37451;SDS011;23314;51.114;6.900;2024-01-25T06:03:04;91.17;;;13.73;;
37451;SDS011;23314;51.114;6.900;2024-01-25T06:05:29;84.13;;;14.60;;
37451;SDS011;23314;51.114;6.900;2024-01-25T06:07:56;101.30;;;16.00;;
37451;SDS011;23314;51.114;6.900;2024-01-25T06:10:21;79.13;;;13.90;;
37451;SDS011;23314;51.114;6.900;2024-01-25T06:12:47;90.90;;;13.67;;
37451;SDS011;23314;51.114;6.900;2024-01-25T06:15:12;76.93;;;12.50;;
37451;SDS011;23314;51.114;6.900;2024-01-25T06:17:37;76.93;;;12.47;;
37451;SDS011;23314;51.114;6.900;2024-01-25T06:20:03;74.17;;;13.47;;
37451;SDS011;23314;51.114;6.900;2024-01-25T06:22:29;66.33;;;13.03;;
37451;SDS011;23314;51.114;6.900;2024-01-25T06:24:55;71.80;;;13.40;;
37451;SDS011;23314;51.114;6.900;2024-01-25T06:27:20;65.37;;;12.90;;
37451;SDS011;23314;51.114;6.900;2024-01-25T06:29:45;84.40;;;13.87;;
37451;SDS011;23314;51.114;6.900;2024-01-25T06:32:11;77.80;;;12.63;;
37451;SDS011;23314;51.114;6.900;2024-01-25T06:34:36;78.33;;;12.87;;
37451;SDS011;23314;51.114;6.900;2024-01-25T06:37:01;74.00;;;12.73;;
37451;SDS011;23314;51.114;6.900;2024-01-25T06:39:27;98.67;;;14.27;;
37451;SDS011;23314;51.114;6.900;2024-01-25T06:41:52;75.40;;;13.10;;
37451;SDS011;23314;51.114;6.900;2024-01-25T06:44:17;68.60;;;13.93;;
37451;SDS011;23314;51.114;6.900;2024-01-25T06:46:43;86.93;;;14.87;;
37451;SDS011;23314;51.114;6.900;2024-01-25T06:49:08;100.27;;;14.43;;
37451;SDS011;23314;51.114;6.900;2024-01-25T06:51:34;87.77;;;14.90;;
37451;SDS011;23314;51.114;6.900;2024-01-25T06:53:59;85.87;;;14.80;;
37451;SDS011;23314;51.114;6.900;2024-01-25T06:56:24;85.07;;;16.37;;
37451;SDS011;23314;51.114;6.900;2024-01-25T06:58:50;84.40;;;15.00;;
37451;SDS011;23314;51.114;6.900;2024-01-25T07:01:20;76.27;;;13.90;;
37451;SDS011;23314;51.114;6.900;2024-01-25T07:03:46;80.33;;;14.30;;
37451;SDS011;23314;51.114;6.900;2024-01-25T07:06:11;77.60;;;14.23;;
37451;SDS011;23314;51.114;6.900;2024-01-25T07:08:36;91.53;;;14.33;;
37451;SDS011;23314;51.114;6.900;2024-01-25T07:11:02;76.80;;;14.20;;
37451;SDS011;23314;51.114;6.900;2024-01-25T07:13:27;81.57;;;14.73;;
37451;SDS011;23314;51.114;6.900;2024-01-25T07:15:52;80.87;;;14.60;;
37451;SDS011;23314;51.114;6.900;2024-01-25T07:18:17;88.43;;;15.90;;
37451;SDS011;23314;51.114;6.900;2024-01-25T07:20:44;82.07;;;16.27;;
37451;SDS011;23314;51.114;6.900;2024-01-25T07:23:10;87.50;;;16.67;;
37451;SDS011;23314;51.114;6.900;2024-01-25T07:25:35;95.80;;;16.37;;
37451;SDS011;23314;51.114;6.900;2024-01-25T07:28:02;66.67;;;14.50;;
37451;SDS011;23314;51.114;6.900;2024-01-25T07:30:27;75.83;;;14.80;;
37451;SDS011;23314;51.114;6.900;2024-01-25T07:32:52;82.57;;;13.93;;
37451;SDS011;23314;51.114;6.900;2024-01-25T07:35:18;79.47;;;16.37;;
37451;SDS011;23314;51.114;6.900;2024-01-25T07:37:43;84.10;;;16.03;;
37451;SDS011;23314;51.114;6.900;2024-01-25T07:40:09;72.93;;;15.13;;
37451;SDS011;23314;51.114;6.900;2024-01-25T07:42:34;97.67;;;16.40;;
37451;SDS011;23314;51.114;6.900;2024-01-25T07:45:00;73.87;;;13.93;;
37451;SDS011;23314;51.114;6.900;2024-01-25T07:47:26;94.13;;;14.10;;
37451;SDS011;23314;51.114;6.900;2024-01-25T07:49:51;77.90;;;15.00;;
37451;SDS011;23314;51.114;6.900;2024-01-25T07:52:16;93.83;;;15.53;;
37451;SDS011;23314;51.114;6.900;2024-01-25T07:54:42;89.97;;;15.70;;
37451;SDS011;23314;51.114;6.900;2024-01-25T07:57:09;90.67;;;15.87;;
37451;SDS011;23314;51.114;6.900;2024-01-25T07:59:34;85.37;;;15.77;;
37451;SDS011;23314;51.114;6.900;2024-01-25T08:02:00;81.83;;;15.03;;
37451;SDS011;23314;51.114;6.900;2024-01-25T08:04:25;77.03;;;14.70;;
37451;SDS011;23314;51.114;6.900;2024-01-25T08:06:51;81.50;;;15.93;;
37451;SDS011;23314;51.114;6.900;2024-01-25T08:09:17;74.87;;;14.50;;
37451;SDS011;23314;51.114;6.900;2024-01-25T08:11:42;71.33;;;13.43;;
37451;SDS011;23314;51.114;6.900;2024-01-25T08:14:07;75.40;;;15.87;;
37451;SDS011;23314;51.114;6.900;2024-01-25T08:16:33;85.90;;;14.60;;
37451;SDS011;23314;51.114;6.900;2024-01-25T08:19:00;87.70;;;14.73;;
37451;SDS011;23314;51.114;6.900;2024-01-25T08:21:26;80.03;;;14.47;;
37451;SDS011;23314;51.114;6.900;2024-01-25T08:23:51;73.70;;;15.60;;
37451;SDS011;23314;51.114;6.900;2024-01-25T08:26:16;84.10;;;16.03;;
37451;SDS011;23314;51.114;6.900;2024-01-25T08:28:42;81.20;;;14.70;;
37451;SDS011;23314;51.114;6.900;2024-01-25T08:31:11;62.83;;;13.43;;
37451;SDS011;23314;51.114;6.900;2024-01-25T08:33:38;79.73;;;14.77;;
37451;SDS011;23314;51.114;6.900;2024-01-25T08:36:07;68.30;;;13.43;;
37451;SDS011;23314;51.114;6.900;2024-01-25T08:38:32;79.07;;;14.57;;
37451;SDS011;23314;51.114;6.900;2024-01-25T08:40:57;94.20;;;15.40;;
37451;SDS011;23314;51.114;6.900;2024-01-25T08:43:23;73.00;;;15.30;;
37451;SDS011;23314;51.114;6.900;2024-01-25T08:45:48;80.10;;;15.63;;
37451;SDS011;23314;51.114;6.900;2024-01-25T08:48:13;81.07;;;14.87;;
37451;SDS011;23314;51.114;6.900;2024-01-25T08:50:39;72.60;;;14.80;;
37451;SDS011;23314;51.114;6.900;2024-01-25T08:53:04;76.67;;;15.23;;
37451;SDS011;23314;51.114;6.900;2024-01-25T08:55:30;72.47;;;14.13;;
37451;SDS011;23314;51.114;6.900;2024-01-25T08:57:55;77.60;;;15.00;;
37451;SDS011;23314;51.114;6.900;2024-01-25T09:00:21;70.47;;;13.90;;
37451;SDS011;23314;51.114;6.900;2024-01-25T09:02:46;72.70;;;15.50;;
37451;SDS011;23314;51.114;6.900;2024-01-25T09:05:12;65.20;;;15.13;;
37451;SDS011;23314;51.114;6.900;2024-01-25T09:07:37;79.10;;;15.77;;
37451;SDS011;23314;51.114;6.900;2024-01-25T09:10:03;73.40;;;15.17;;
37451;SDS011;23314;51.114;6.900;2024-01-25T09:12:32;86.67;;;16.33;;
37451;SDS011;23314;51.114;6.900;2024-01-25T09:14:57;62.33;;;15.77;;
37451;SDS011;23314;51.114;6.900;2024-01-25T09:17:23;73.00;;;15.80;;
37451;SDS011;23314;51.114;6.900;2024-01-25T09:19:49;73.07;;;16.53;;
37451;SDS011;23314;51.114;6.900;2024-01-25T09:22:15;69.73;;;15.43;;
37451;SDS011;23314;51.114;6.900;2024-01-25T09:24:42;66.13;;;15.13;;
37451;SDS011;23314;51.114;6.900;2024-01-25T09:27:09;78.57;;;17.53;;
37451;SDS011;23314;51.114;6.900;2024-01-25T09:29:34;66.13;;;15.60;;
37451;SDS011;23314;51.114;6.900;2024-01-25T09:32:00;73.37;;;16.47;;
37451;SDS011;23314;51.114;6.900;2024-01-25T09:34:25;80.33;;;16.97;;
37451;SDS011;23314;51.114;6.900;2024-01-25T09:36:51;71.80;;;15.20;;
37451;SDS011;23314;51.114;6.900;2024-01-25T09:39:16;76.47;;;16.63;;
37451;SDS011;23314;51.114;6.900;2024-01-25T09:41:42;69.03;;;16.20;;
37451;SDS011;23314;51.114;6.900;2024-01-25T09:44:08;69.50;;;15.40;;
37451;SDS011;23314;51.114;6.900;2024-01-25T09:46:33;66.53;;;14.90;;
37451;SDS011;23314;51.114;6.900;2024-01-25T09:49:00;72.03;;;16.63;;
37451;SDS011;23314;51.114;6.900;2024-01-25T09:51:26;71.27;;;15.90;;
37451;SDS011;23314;51.114;6.900;2024-01-25T09:53:52;59.17;;;14.77;;
37451;SDS011;23314;51.114;6.900;2024-01-25T09:56:20;77.63;;;15.30;;
37451;SDS011;23314;51.114;6.900;2024-01-25T09:58:45;67.63;;;15.93;;
37451;SDS011;23314;51.114;6.900;2024-01-25T10:01:13;66.73;;;14.83;;
37451;SDS011;23314;51.114;6.900;2024-01-25T10:03:43;67.93;;;15.43;;
37451;SDS011;23314;51.114;6.900;2024-01-25T10:06:10;57.63;;;15.27;;
37451;SDS011;23314;51.114;6.900;2024-01-25T10:08:36;70.67;;;15.47;;
37451;SDS011;23314;51.114;6.900;2024-01-25T10:11:01;59.67;;;14.13;;
37451;SDS011;23314;51.114;6.900;2024-01-25T10:13:27;57.97;;;15.07;;
37451;SDS011;23314;51.114;6.900;2024-01-25T10:15:53;60.70;;;15.20;;
37451;SDS011;23314;51.114;6.900;2024-01-25T10:18:19;58.37;;;14.73;;
37451;SDS011;23314;51.114;6.900;2024-01-25T10:20:45;70.07;;;14.63;;
37451;SDS011;23314;51.114;6.900;2024-01-25T10:23:10;71.33;;;15.93;;
37451;SDS011;23314;51.114;6.900;2024-01-25T10:25:36;59.33;;;15.20;;
37451;SDS011;23314;51.114;6.900;2024-01-25T10:28:05;57.93;;;13.90;;
37451;SDS011;23314;51.114;6.900;2024-01-25T10:30:31;62.20;;;16.03;;
37451;SDS011;23314;51.114;6.900;2024-01-25T10:32:58;58.00;;;15.10;;
37451;SDS011;23314;51.114;6.900;2024-01-25T10:35:24;54.97;;;14.77;;
37451;SDS011;23314;51.114;6.900;2024-01-25T10:37:51;61.03;;;16.10;;
37451;SDS011;23314;51.114;6.900;2024-01-25T10:40:18;44.83;;;14.37;;
37451;SDS011;23314;51.114;6.900;2024-01-25T10:42:44;64.10;;;16.47;;
37451;SDS011;23314;51.114;6.900;2024-01-25T10:45:09;55.23;;;15.67;;
37451;SDS011;23314;51.114;6.900;2024-01-25T10:47:35;64.63;;;17.77;;
37451;SDS011;23314;51.114;6.900;2024-01-25T10:50:01;60.47;;;16.43;;
37451;SDS011;23314;51.114;6.900;2024-01-25T10:52:27;51.77;;;15.57;;
37451;SDS011;23314;51.114;6.900;2024-01-25T10:54:54;52.20;;;15.57;;
37451;SDS011;23314;51.114;6.900;2024-01-25T10:57:20;60.60;;;17.30;;
37451;SDS011;23314;51.114;6.900;2024-01-25T10:59:45;47.77;;;15.37;;
37451;SDS011;23314;51.114;6.900;2024-01-25T11:02:11;55.10;;;17.83;;
37451;SDS011;23314;51.114;6.900;2024-01-25T11:04:37;56.57;;;19.50;;
37451;SDS011;23314;51.114;6.900;2024-01-25T11:07:08;58.47;;;17.77;;
37451;SDS011;23314;51.114;6.900;2024-01-25T11:09:35;46.47;;;16.97;;
37451;SDS011;23314;51.114;6.900;2024-01-25T11:12:13;54.07;;;16.80;;
37451;SDS011;23314;51.114;6.900;2024-01-25T11:14:39;49.37;;;17.33;;
37451;SDS011;23314;51.114;6.900;2024-01-25T11:17:14;49.47;;;19.30;;
37451;SDS011;23314;51.114;6.900;2024-01-25T11:19:43;52.13;;;18.57;;
37451;SDS011;23314;51.114;6.900;2024-01-25T11:22:10;59.93;;;19.07;;
37451;SDS011;23314;51.114;6.900;2024-01-25T11:24:39;55.43;;;18.50;;
37451;SDS011;23314;51.114;6.900;2024-01-25T11:27:05;58.03;;;19.60;;
37451;SDS011;23314;51.114;6.900;2024-01-25T11:29:30;51.90;;;20.67;;
37451;SDS011;23314;51.114;6.900;2024-01-25T11:31:56;61.20;;;20.53;;
37451;SDS011;23314;51.114;6.900;2024-01-25T11:34:22;63.20;;;19.93;;
37451;SDS011;23314;51.114;6.900;2024-01-25T11:36:48;61.77;;;20.47;;
37451;SDS011;23314;51.114;6.900;2024-01-25T11:39:14;56.03;;;20.10;;
37451;SDS011;23314;51.114;6.900;2024-01-25T11:41:41;68.60;;;20.80;;
37451;SDS011;23314;51.114;6.900;2024-01-25T11:44:09;59.50;;;20.23;;
37451;SDS011;23314;51.114;6.900;2024-01-25T11:46:35;63.67;;;20.60;;
37451;SDS011;23314;51.114;6.900;2024-01-25T11:49:00;55.17;;;21.30;;
37451;SDS011;23314;51.114;6.900;2024-01-25T11:51:26;62.83;;;21.57;;
37451;SDS011;23314;51.114;6.900;2024-01-25T11:53:51;56.00;;;19.43;;
37451;SDS011;23314;51.114;6.900;2024-01-25T11:56:19;54.33;;;20.57;;
37451;SDS011;23314;51.114;6.900;2024-01-25T11:58:47;54.23;;;20.20;;
37451;SDS011;23314;51.114;6.900;2024-01-25T12:01:13;54.17;;;20.53;;
37451;SDS011;23314;51.114;6.900;2024-01-25T12:03:40;59.33;;;20.10;;
37451;SDS011;23314;51.114;6.900;2024-01-25T12:06:06;57.53;;;21.60;;
37451;SDS011;23314;51.114;6.900;2024-01-25T12:08:34;54.77;;;20.40;;
37451;SDS011;23314;51.114;6.900;2024-01-25T12:11:07;52.77;;;21.17;;
37451;SDS011;23314;51.114;6.900;2024-01-25T12:13:42;62.10;;;19.90;;
37451;SDS011;23314;51.114;6.900;2024-01-25T12:16:08;55.87;;;19.57;;
37451;SDS011;23314;51.114;6.900;2024-01-25T12:18:34;60.13;;;19.93;;
37451;SDS011;23314;51.114;6.900;2024-01-25T12:21:03;52.97;;;18.93;;
37451;SDS011;23314;51.114;6.900;2024-01-25T12:23:33;57.27;;;17.27;;
37451;SDS011;23314;51.114;6.900;2024-01-25T12:26:01;61.83;;;16.63;;
37451;SDS011;23314;51.114;6.900;2024-01-25T12:28:27;53.90;;;17.53;;
37451;SDS011;23314;51.114;6.900;2024-01-25T12:30:53;53.87;;;16.30;;
37451;SDS011;23314;51.114;6.900;2024-01-25T12:33:19;50.40;;;18.13;;
37451;SDS011;23314;51.114;6.900;2024-01-25T12:35:45;49.30;;;16.90;;
37451;SDS011;23314;51.114;6.900;2024-01-25T12:38:10;50.33;;;15.80;;
37451;SDS011;23314;51.114;6.900;2024-01-25T12:40:36;48.97;;;15.50;;
37451;SDS011;23314;51.114;6.900;2024-01-25T12:43:01;50.30;;;16.50;;
37451;SDS011;23314;51.114;6.900;2024-01-25T12:45:26;53.93;;;16.87;;
37451;SDS011;23314;51.114;6.900;2024-01-25T12:47:52;46.47;;;15.50;;
37451;SDS011;23314;51.114;6.900;2024-01-25T12:50:17;45.90;;;16.10;;
37451;SDS011;23314;51.114;6.900;2024-01-25T12:52:42;42.17;;;14.57;;
37451;SDS011;23314;51.114;6.900;2024-01-25T12:55:08;57.20;;;15.27;;
37451;SDS011;23314;51.114;6.900;2024-01-25T12:57:33;55.80;;;15.60;;
37451;SDS011;23314;51.114;6.900;2024-01-25T12:59:59;44.60;;;14.47;;
37451;SDS011;23314;51.114;6.900;2024-01-25T13:02:24;51.53;;;13.83;;
37451;SDS011;23314;51.114;6.900;2024-01-25T13:04:49;47.30;;;13.37;;
37451;SDS011;23314;51.114;6.900;2024-01-25T13:07:15;40.07;;;12.37;;
37451;SDS011;23314;51.114;6.900;2024-01-25T13:09:40;44.83;;;12.17;;
37451;SDS011;23314;51.114;6.900;2024-01-25T13:12:06;46.77;;;12.50;;
37451;SDS011;23314;51.114;6.900;2024-01-25T13:14:32;46.60;;;11.67;;
37451;SDS011;23314;51.114;6.900;2024-01-25T13:16:58;44.60;;;11.83;;
37451;SDS011;23314;51.114;6.900;2024-01-25T13:19:23;45.10;;;12.00;;
37451;SDS011;23314;51.114;6.900;2024-01-25T13:21:49;40.63;;;11.80;;
37451;SDS011;23314;51.114;6.900;2024-01-25T13:24:14;51.37;;;12.70;;
37451;SDS011;23314;51.114;6.900;2024-01-25T13:26:39;45.73;;;12.03;;
37451;SDS011;23314;51.114;6.900;2024-01-25T13:29:05;40.80;;;11.37;;
37451;SDS011;23314;51.114;6.900;2024-01-25T13:31:30;52.13;;;12.60;;
37451;SDS011;23314;51.114;6.900;2024-01-25T13:33:55;37.37;;;10.87;;
37451;SDS011;23314;51.114;6.900;2024-01-25T13:36:21;43.73;;;12.60;;
37451;SDS011;23314;51.114;6.900;2024-01-25T13:38:46;36.27;;;10.33;;
37451;SDS011;23314;51.114;6.900;2024-01-25T13:41:11;43.50;;;11.80;;
37451;SDS011;23314;51.114;6.900;2024-01-25T13:43:36;42.40;;;10.90;;
37451;SDS011;23314;51.114;6.900;2024-01-25T13:46:02;36.47;;;11.00;;
37451;SDS011;23314;51.114;6.900;2024-01-25T13:48:27;36.80;;;10.57;;
37451;SDS011;23314;51.114;6.900;2024-01-25T13:50:52;45.37;;;12.00;;
37451;SDS011;23314;51.114;6.900;2024-01-25T13:53:18;44.13;;;10.13;;
37451;SDS011;23314;51.114;6.900;2024-01-25T13:55:43;36.23;;;10.70;;
37451;SDS011;23314;51.114;6.900;2024-01-25T13:58:09;38.27;;;10.23;;
37451;SDS011;23314;51.114;6.900;2024-01-25T14:00:35;39.60;;;10.37;;
37451;SDS011;23314;51.114;6.900;2024-01-25T14:03:00;40.50;;;11.30;;
37451;SDS011;23314;51.114;6.900;2024-01-25T14:05:25;38.97;;;11.20;;
37451;SDS011;23314;51.114;6.900;2024-01-25T14:07:51;43.70;;;11.57;;
37451;SDS011;23314;51.114;6.900;2024-01-25T14:10:16;36.80;;;10.00;;
37451;SDS011;23314;51.114;6.900;2024-01-25T14:12:41;48.17;;;12.17;;
37451;SDS011;23314;51.114;6.900;2024-01-25T14:15:07;37.77;;;10.37;;